createdAt,value
2023-02-18T00:00:12.491Z,99995.85
2023-02-18T00:02:40.276Z,99995.63
2023-02-18T00:05:08.340Z,100002.68
2023-02-18T00:07:36.995Z,100002.91
2023-02-18T00:10:07.859Z,100005.88
2023-02-18T00:12:35.889Z,100005.75
2023-02-18T00:15:03.872Z,100005.13
2023-02-18T00:17:31.574Z,100013.08
2023-02-18T00:19:59.568Z,100004.27
2023-02-18T00:22:27.297Z,100008.61
2023-02-18T00:24:54.989Z,100014.52
2023-02-18T00:27:22.738Z,100021.36
2023-02-18T00:29:50.448Z,100022.27
2023-02-18T00:32:18.232Z,100024.75
2023-02-18T00:34:45.975Z,100018.85
2023-02-18T00:37:13.690Z,100018.70
2023-02-18T00:39:41.430Z,100022.39
2023-02-18T00:42:09.188Z,100028.26
2023-02-18T00:44:36.916Z,100028.83
2023-02-18T00:47:04.808Z,100032.34
2023-02-18T00:49:32.580Z,100033.26
2023-02-18T00:52:00.329Z,100036.23
2023-02-18T00:54:28.056Z,100035.77
2023-02-18T00:56:55.836Z,100040.86
2023-02-18T00:59:23.613Z,100039.73
2023-02-18T01:01:51.417Z,100037.27
2023-02-18T01:04:19.590Z,100043.29
2023-02-18T01:06:49.120Z,100042.54
2023-02-18T01:09:16.970Z,100046.70
2023-02-18T01:11:45.170Z,100042.17
2023-02-18T01:14:12.891Z,100047.02
2023-02-18T01:16:40.615Z,100051.55
2023-02-18T01:19:09.889Z,100050.95
2023-02-18T01:21:38.845Z,100050.74
2023-02-18T01:24:07.763Z,100058.67
2023-02-18T01:26:36.636Z,100045.16
2023-02-18T01:29:04.395Z,100052.40
2023-02-18T01:31:32.208Z,100052.99
2023-02-18T01:34:00.107Z,100048.64
2023-02-18T01:36:30.074Z,100045.64
2023-02-18T01:38:57.925Z,100045.09
2023-02-18T01:41:25.627Z,100045.98
2023-02-18T01:44:14.939Z,100053.86
2023-02-18T01:46:42.996Z,100046.63
2023-02-18T01:49:12.410Z,100056.95
2023-02-18T01:51:44.263Z,100052.61
2023-02-18T01:54:16.660Z,100056.75
2023-02-18T01:56:48.354Z,100061.27
2023-02-18T01:59:21.414Z,100068.20
2023-02-18T02:01:49.475Z,100065.92
2023-02-18T02:04:17.731Z,100063.81
2023-02-18T02:06:45.476Z,100062.59
2023-02-18T02:09:15.922Z,100065.38
2023-02-18T02:12:10.378Z,100060.23
2023-02-18T02:14:55.298Z,100064.80
2023-02-18T02:17:32.638Z,100062.38
2023-02-18T02:20:29.529Z,100065.70
2023-02-18T02:23:21.998Z,100069.70
2023-02-18T02:26:12.596Z,100070.48
2023-02-18T02:29:06.184Z,100070.55
2023-02-18T02:31:55.224Z,100074.55
2023-02-18T02:34:41.049Z,100072.94
2023-02-18T02:37:16.139Z,100069.60
2023-02-18T02:39:58.828Z,100069.17
2023-02-18T02:42:36.767Z,100070.98
2023-02-18T02:45:11.010Z,100066.73
2023-02-18T02:47:45.086Z,100069.55
2023-02-18T02:50:17.712Z,100063.73
2023-02-18T02:52:51.990Z,100070.77
2023-02-18T02:55:20.824Z,100070.13
2023-02-18T02:57:52.468Z,100070.06
2023-02-18T03:00:39.394Z,100073.23
2023-02-18T03:03:19.879Z,100074.15
2023-02-18T03:06:07.032Z,100084.27
2023-02-18T03:08:46.965Z,100078.08
2023-02-18T03:11:17.626Z,100080.58
2023-02-18T03:14:01.995Z,100074.75
2023-02-18T03:16:41.336Z,100089.61
2023-02-18T03:19:18.593Z,100088.19
2023-02-18T03:21:56.386Z,100087.98
2023-02-18T03:24:29.360Z,100092.34
2023-02-18T03:27:12.088Z,100097.38
2023-02-18T03:29:40.614Z,100096.49
2023-02-18T03:32:13.518Z,100091.52
2023-02-18T03:34:45.832Z,100102.01
2023-02-18T03:37:15.339Z,100106.70
2023-02-18T03:39:49.692Z,100106.16
2023-02-18T03:42:18.741Z,100107.09
2023-02-18T03:44:46.450Z,100106.68
2023-02-18T03:47:14.206Z,100105.05
2023-02-18T03:49:42.627Z,100108.60
2023-02-18T03:52:11.310Z,100119.39
2023-02-18T03:54:39.016Z,100121.35
2023-02-18T03:57:06.738Z,100123.10
2023-02-18T03:59:34.939Z,100126.38
2023-02-18T04:02:02.896Z,100133.41
2023-02-18T04:04:30.700Z,100129.89
2023-02-18T04:06:58.646Z,100143.57
2023-02-18T04:09:26.570Z,100147.58
2023-02-18T04:11:54.273Z,100144.29
2023-02-18T04:14:21.969Z,100140.79
2023-02-18T04:16:49.731Z,100137.83
2023-02-18T04:19:17.504Z,100145.26
2023-02-18T04:21:45.195Z,100141.99
2023-02-18T04:24:13.068Z,100138.75
2023-02-18T04:26:41.335Z,100136.73
2023-02-18T04:29:09.427Z,100137.27
2023-02-18T04:31:37.312Z,100139.52
2023-02-18T04:34:05.122Z,100138.40
2023-02-18T04:36:32.812Z,100139.13
2023-02-18T04:39:00.508Z,100139.02
2023-02-18T04:41:28.228Z,100138.76
2023-02-18T04:43:55.899Z,100136.12
2023-02-18T04:46:23.609Z,100137.89
2023-02-18T04:48:51.387Z,100137.54
2023-02-18T04:51:19.100Z,100130.58
2023-02-18T04:53:46.869Z,100134.89
2023-02-18T04:56:14.599Z,100129.50
2023-02-18T04:58:42.323Z,100130.67
2023-02-18T05:01:11.044Z,100128.61
2023-02-18T05:03:38.960Z,100132.94
2023-02-18T05:06:09.048Z,100126.06
2023-02-18T05:08:36.933Z,100132.67
2023-02-18T05:11:07.722Z,100132.66
2023-02-18T05:13:35.509Z,100134.00
2023-02-18T05:16:03.586Z,100127.03
2023-02-18T05:18:31.369Z,100134.36
2023-02-18T05:20:59.687Z,100134.22
2023-02-18T05:23:27.406Z,100132.88
2023-02-18T05:25:55.697Z,100137.83
2023-02-18T05:28:24.034Z,100140.70
2023-02-18T05:30:51.756Z,100144.62
2023-02-18T05:33:19.479Z,100143.89
2023-02-18T05:35:47.809Z,100141.66
2023-02-18T05:38:15.699Z,100143.01
2023-02-18T05:40:43.496Z,100154.23
2023-02-18T05:43:11.223Z,100156.80
2023-02-18T05:45:38.953Z,100153.27
2023-02-18T05:48:06.734Z,100151.95
2023-02-18T05:50:34.864Z,100159.80
2023-02-18T05:53:02.619Z,100159.86
2023-02-18T05:55:30.368Z,100161.86
2023-02-18T05:57:58.086Z,100165.13
2023-02-18T06:00:25.801Z,100166.89
2023-02-18T06:02:53.510Z,100168.14
2023-02-18T06:05:21.375Z,100170.66
2023-02-18T06:07:49.130Z,100168.50
2023-02-18T06:10:17.854Z,100174.80
2023-02-18T06:12:45.566Z,100179.61
2023-02-18T06:15:13.269Z,100183.04
2023-02-18T06:17:40.962Z,100186.45
2023-02-18T06:20:10.142Z,100185.64
2023-02-18T06:22:37.875Z,100185.53
2023-02-18T06:25:06.781Z,100183.77
2023-02-18T06:27:34.480Z,100186.27
2023-02-18T06:30:02.300Z,100180.48
2023-02-18T06:32:30.066Z,100181.17
2023-02-18T06:34:57.756Z,100183.27
2023-02-18T06:37:25.498Z,100187.27
2023-02-18T06:39:53.192Z,100189.91
2023-02-18T06:42:20.944Z,100194.58
2023-02-18T06:44:48.714Z,100194.98
2023-02-18T06:47:16.472Z,100195.60
2023-02-18T06:49:44.194Z,100197.89
2023-02-18T06:52:12.047Z,100193.89
2023-02-18T06:54:39.797Z,100195.50
2023-02-18T06:57:07.506Z,100193.38
2023-02-18T06:59:35.322Z,100195.27
2023-02-18T07:02:03.070Z,100195.51
2023-02-18T07:04:30.803Z,100198.77
2023-02-18T07:06:58.555Z,100194.09
2023-02-18T07:09:26.405Z,100198.27
2023-02-18T07:11:54.123Z,100202.60
2023-02-18T07:14:23.680Z,100199.43
2023-02-18T07:16:51.380Z,100198.98
2023-02-18T07:19:19.198Z,100206.05
2023-02-18T07:21:46.883Z,100205.56
2023-02-18T07:24:14.599Z,100202.90
2023-02-18T07:26:42.275Z,100200.55
2023-02-18T07:29:10.008Z,100200.59
2023-02-18T07:31:38.068Z,100206.41
2023-02-18T07:34:05.860Z,100214.86
2023-02-18T07:36:33.585Z,100209.99
2023-02-18T07:39:01.626Z,100214.18
2023-02-18T07:41:29.333Z,100208.83
2023-02-18T07:43:57.070Z,100207.39
2023-02-18T07:46:25.022Z,100207.89
2023-02-18T07:48:52.771Z,100208.52
2023-02-18T07:51:20.476Z,100215.41
2023-02-18T07:53:48.213Z,100212.81
2023-02-18T07:56:17.846Z,100212.61
2023-02-18T07:58:45.844Z,100209.48
2023-02-18T08:01:15.732Z,100203.94
2023-02-18T08:03:43.899Z,100205.08
2023-02-18T08:06:20.655Z,100203.80
2023-02-18T08:08:49.378Z,100206.08
2023-02-18T08:11:19.622Z,100207.33
2023-02-18T08:13:47.918Z,100209.48
2023-02-18T08:16:16.163Z,100205.84
2023-02-18T08:18:44.498Z,100208.51
2023-02-18T08:21:12.253Z,100214.94
2023-02-18T08:23:40.528Z,100215.60
2023-02-18T08:26:09.048Z,100211.43
2023-02-18T08:28:43.523Z,100211.73
2023-02-18T08:31:18.062Z,100203.44
2023-02-18T08:33:47.380Z,100208.59
2023-02-18T08:36:15.219Z,100200.20
2023-02-18T08:38:43.029Z,100210.75
2023-02-18T08:41:11.364Z,100196.95
2023-02-18T08:43:39.287Z,100187.92
2023-02-18T08:46:07.021Z,100201.33
2023-02-18T08:48:34.894Z,100194.75
2023-02-18T08:51:12.847Z,100201.81
2023-02-18T08:53:40.886Z,100207.31
2023-02-18T08:56:09.991Z,100202.13
2023-02-18T08:58:37.970Z,100208.14
2023-02-18T09:01:09.060Z,100207.38
2023-02-18T09:03:37.358Z,100210.02
2023-02-18T09:06:06.674Z,100212.29
2023-02-18T09:08:34.608Z,100205.13
2023-02-18T09:11:04.858Z,100202.42
2023-02-18T09:13:33.378Z,100205.35
2023-02-18T09:16:03.714Z,100192.15
2023-02-18T09:18:32.602Z,100187.42
2023-02-18T09:21:00.927Z,100188.13
2023-02-18T09:23:30.280Z,100184.60
2023-02-18T09:25:58.214Z,100184.66
2023-02-18T09:28:26.930Z,100187.16
2023-02-18T09:30:54.761Z,100185.83
2023-02-18T09:33:23.007Z,100186.38
2023-02-18T09:35:50.700Z,100185.84
2023-02-18T09:38:18.449Z,100187.02
2023-02-18T09:40:50.375Z,100190.02
2023-02-18T09:43:27.059Z,100183.92
2023-02-18T09:45:56.388Z,100176.65
2023-02-18T09:48:28.923Z,100180.73
2023-02-18T09:50:57.140Z,100176.63
2023-02-18T09:53:25.473Z,100173.48
2023-02-18T09:55:55.797Z,100177.23
2023-02-18T09:58:26.450Z,100171.11
2023-02-18T10:01:02.858Z,100174.27
2023-02-18T10:03:31.633Z,100172.94
2023-02-18T10:06:02.791Z,100177.94
2023-02-18T10:08:34.806Z,100180.58
2023-02-18T10:11:03.134Z,100177.96
2023-02-18T10:13:32.781Z,100174.38
2023-02-18T10:16:01.502Z,100178.52
2023-02-18T10:18:32.423Z,100167.34
2023-02-18T10:21:09.376Z,100160.70
2023-02-18T10:23:40.055Z,100153.15
2023-02-18T10:26:14.350Z,100148.77
2023-02-18T10:28:42.339Z,100149.94
2023-02-18T10:31:15.209Z,100148.08
2023-02-18T10:33:47.899Z,100142.66
2023-02-18T10:36:28.955Z,100138.90
2023-02-18T10:39:18.317Z,100137.55
2023-02-18T10:41:55.821Z,100126.45
2023-02-18T10:44:37.144Z,100117.27
2023-02-18T10:47:17.200Z,100111.58
2023-02-18T10:49:59.591Z,100103.57
2023-02-18T10:52:30.448Z,100099.00
2023-02-18T10:55:04.323Z,100092.23
2023-02-18T10:57:33.101Z,100085.75
2023-02-18T11:00:10.461Z,100077.16
2023-02-18T11:02:39.169Z,100069.45
2023-02-18T11:05:19.262Z,100065.84
2023-02-18T11:07:50.094Z,100058.35
2023-02-18T11:10:23.745Z,100047.91
2023-02-18T11:12:56.163Z,100044.98
2023-02-18T11:15:26.151Z,100043.67
2023-02-18T11:17:55.366Z,100036.45
2023-02-18T11:20:29.541Z,100029.95
2023-02-18T11:23:19.155Z,100021.05
2023-02-18T11:26:04.360Z,100021.30
2023-02-18T11:28:41.377Z,100010.95
2023-02-18T11:31:11.930Z,100005.16
2023-02-18T11:33:43.088Z,100000.30
2023-02-18T11:36:21.802Z,99992.48
2023-02-18T11:38:52.295Z,99983.48
2023-02-18T11:41:22.703Z,99971.00
2023-02-18T11:43:52.733Z,99967.60
2023-02-18T11:46:22.881Z,99960.56
2023-02-18T11:48:51.903Z,99955.14
2023-02-18T11:51:24.273Z,99943.39
2023-02-18T11:53:59.180Z,99929.42
2023-02-18T11:56:29.420Z,99926.52
2023-02-18T11:58:58.309Z,99923.30
2023-02-18T12:01:37.849Z,99924.12
2023-02-18T12:04:12.055Z,99920.52
2023-02-18T12:06:47.926Z,99913.66
2023-02-18T12:09:23.601Z,99908.17
2023-02-18T12:11:55.850Z,99896.58
2023-02-18T12:14:23.627Z,99884.95
2023-02-18T12:17:25.897Z,99876.41
2023-02-18T12:20:13.465Z,99868.39
2023-02-18T12:22:43.682Z,99859.63
2023-02-18T12:25:24.939Z,99857.96
2023-02-18T12:28:04.467Z,99852.87
2023-02-18T12:30:48.099Z,99843.33
2023-02-18T12:33:25.380Z,99842.97
2023-02-18T12:36:08.289Z,99841.48
2023-02-18T12:38:53.377Z,99828.29
2023-02-18T12:41:27.492Z,99814.39
2023-02-18T12:44:04.677Z,99807.46
2023-02-18T12:46:50.814Z,99806.13
2023-02-18T12:49:44.003Z,99799.95
2023-02-18T12:52:24.092Z,99785.98
2023-02-18T12:55:28.307Z,99767.42
2023-02-18T12:58:05.902Z,99762.83
2023-02-18T13:00:57.521Z,99760.77
2023-02-18T13:04:04.000Z,99753.53
2023-02-18T13:06:57.618Z,99731.71
2023-02-18T13:09:42.234Z,99713.09
2023-02-18T13:12:18.727Z,99721.29
2023-02-18T13:14:55.239Z,99698.30
2023-02-18T13:17:26.356Z,99688.27
2023-02-18T13:19:59.302Z,99695.27
2023-02-18T13:22:30.166Z,99689.01
2023-02-18T13:24:59.422Z,99684.59
2023-02-18T13:27:33.416Z,99674.73
2023-02-18T13:30:19.478Z,99665.42
2023-02-18T13:32:57.485Z,99650.34
2023-02-18T13:35:31.869Z,99652.25
2023-02-18T13:38:20.083Z,99645.61
2023-02-18T13:40:49.036Z,99640.02
2023-02-18T13:43:31.213Z,99636.79
2023-02-18T13:46:11.085Z,99637.53
2023-02-18T13:48:45.378Z,99633.61
2023-02-18T13:51:15.910Z,99631.50
2023-02-18T13:53:49.662Z,99622.09
2023-02-18T13:56:27.877Z,99615.34
2023-02-18T13:59:00.174Z,99611.66
2023-02-18T14:01:39.805Z,99608.43
2023-02-18T14:04:47.225Z,99604.84
2023-02-18T14:07:26.657Z,99594.44
2023-02-18T14:09:55.667Z,99593.59
2023-02-18T14:12:41.801Z,99587.27
2023-02-18T14:15:51.988Z,99572.90
2023-02-18T14:18:54.106Z,99563.70
2023-02-18T14:21:36.279Z,99550.59
2023-02-18T14:24:06.490Z,99549.05
2023-02-18T14:26:38.811Z,99545.23
2023-02-18T14:29:11.384Z,99543.25
2023-02-18T14:31:47.054Z,99533.25
2023-02-18T14:34:50.918Z,99531.82
2023-02-18T14:38:00.857Z,99524.56
2023-02-18T14:40:41.136Z,99525.95
2023-02-18T14:43:17.608Z,99520.05
2023-02-18T14:46:02.993Z,99513.59
2023-02-18T14:48:52.836Z,99509.52
2023-02-18T14:51:24.084Z,99509.00
2023-02-18T14:53:52.353Z,99517.00
2023-02-18T14:56:22.406Z,99508.39
2023-02-18T14:58:53.619Z,99509.90
2023-02-18T15:01:23.434Z,99511.09
2023-02-18T15:03:53.810Z,99509.64
2023-02-18T15:06:30.002Z,99514.00
2023-02-18T15:08:58.081Z,99521.04
2023-02-18T15:11:34.932Z,99515.12
2023-02-18T15:14:09.595Z,99521.98
2023-02-18T15:16:38.440Z,99518.81
2023-02-18T15:19:13.412Z,99524.70
2023-02-18T15:21:44.745Z,99516.86
2023-02-18T15:24:23.349Z,99511.65
2023-02-18T15:26:52.424Z,99505.14
2023-02-18T15:29:22.453Z,99503.79
2023-02-18T15:31:51.031Z,99497.34
2023-02-18T15:34:36.450Z,99492.23
2023-02-18T15:37:06.221Z,99499.70
2023-02-18T15:39:34.737Z,99495.20
2023-02-18T15:42:09.325Z,99496.32
2023-02-18T15:44:38.142Z,99501.88
2023-02-18T15:47:09.590Z,99502.52
2023-02-18T15:49:39.586Z,99509.98
2023-02-18T15:52:08.586Z,99502.37
2023-02-18T15:54:39.260Z,99503.94
2023-02-18T15:57:09.838Z,99487.95
2023-02-18T15:59:45.444Z,99493.10
2023-02-18T16:02:18.361Z,99482.52
2023-02-18T16:04:50.903Z,99496.34
2023-02-18T16:07:25.423Z,99489.35
2023-02-18T16:10:14.655Z,99476.89
2023-02-18T16:12:49.529Z,99480.67
2023-02-18T16:15:25.359Z,99488.55
2023-02-18T16:17:53.341Z,99486.52
2023-02-18T16:20:30.322Z,99479.53
2023-02-18T16:23:02.848Z,99476.27
2023-02-18T16:25:41.708Z,99475.40
2023-02-18T16:28:15.556Z,99477.63
2023-02-18T16:30:45.450Z,99473.88
2023-02-18T16:33:13.270Z,99484.70
2023-02-18T16:35:49.519Z,99486.44
2023-02-18T16:38:20.216Z,99491.06
2023-02-18T16:40:48.990Z,99481.01
2023-02-18T16:43:18.266Z,99481.86
2023-02-18T16:45:49.761Z,99488.36
2023-02-18T16:48:21.165Z,99497.92
2023-02-18T16:50:51.992Z,99491.58
2023-02-18T16:53:19.989Z,99489.34
2023-02-18T16:55:50.475Z,99480.86
2023-02-18T16:58:18.408Z,99495.10
2023-02-18T17:00:48.486Z,99499.39
2023-02-18T17:03:16.978Z,99504.85
2023-02-18T17:05:44.769Z,99499.56
2023-02-18T17:08:19.726Z,99500.58
2023-02-18T17:10:48.847Z,99506.38
2023-02-18T17:13:18.251Z,99505.61
2023-02-18T17:15:48.000Z,99506.75
2023-02-18T17:18:15.795Z,99511.35
2023-02-18T17:20:44.247Z,99506.75
2023-02-18T17:23:15.195Z,99521.13
2023-02-18T17:25:43.298Z,99514.30
2023-02-18T17:28:11.022Z,99507.98
2023-02-18T17:30:42.400Z,99520.92
2023-02-18T17:33:14.164Z,99536.28
2023-02-18T17:35:41.874Z,99545.16
2023-02-18T17:38:12.212Z,99550.96
2023-02-18T17:40:39.966Z,99552.16
2023-02-18T17:43:11.722Z,99551.49
2023-02-18T17:45:43.538Z,99550.00
2023-02-18T17:48:11.287Z,99555.46
2023-02-18T17:50:39.007Z,99569.46
2023-02-18T17:53:06.933Z,99564.17
2023-02-18T17:55:36.353Z,99563.16
2023-02-18T17:58:04.182Z,99579.00
2023-02-18T18:00:34.683Z,99575.71
2023-02-18T18:03:03.066Z,99577.92
2023-02-18T18:05:33.280Z,99587.34
2023-02-18T18:08:01.865Z,99595.02
2023-02-18T18:10:32.904Z,99592.61
2023-02-18T18:13:04.689Z,99594.11
2023-02-18T18:15:36.134Z,99600.55
2023-02-18T18:18:04.403Z,99605.13
2023-02-18T18:20:34.054Z,99600.34
2023-02-18T18:23:04.690Z,99601.86
2023-02-18T18:25:36.415Z,99616.75
2023-02-18T18:28:05.279Z,99612.36
2023-02-18T18:30:35.462Z,99620.71
2023-02-18T18:33:11.672Z,99618.66
2023-02-18T18:35:39.399Z,99624.98
2023-02-18T18:38:07.109Z,99617.44
2023-02-18T18:40:34.859Z,99627.31
2023-02-18T18:43:03.248Z,99638.41
2023-02-18T18:45:33.324Z,99637.48
2023-02-18T18:48:01.246Z,99635.45
2023-02-18T18:50:29.370Z,99649.77
2023-02-18T18:52:57.424Z,99658.30
2023-02-18T18:55:29.330Z,99661.36
2023-02-18T18:57:58.496Z,99661.84
2023-02-18T19:00:28.933Z,99665.89
2023-02-18T19:02:57.249Z,99676.59
2023-02-18T19:05:28.801Z,99691.23
2023-02-18T19:07:57.712Z,99692.55
2023-02-18T19:10:28.426Z,99695.58
2023-02-18T19:13:02.388Z,99699.30
2023-02-18T19:15:30.440Z,99696.39
2023-02-18T19:17:58.422Z,99707.98
2023-02-18T19:20:29.403Z,99717.32
2023-02-18T19:22:57.270Z,99732.34
2023-02-18T19:25:25.776Z,99745.83
2023-02-18T19:27:53.835Z,99751.50
2023-02-18T19:30:23.745Z,99767.27
2023-02-18T19:32:54.195Z,99765.86
2023-02-18T19:35:22.548Z,99757.81
2023-02-18T19:37:50.765Z,99764.99
2023-02-18T19:40:20.869Z,99771.84
2023-02-18T19:42:48.842Z,99787.23
2023-02-18T19:45:18.655Z,99781.30
2023-02-18T19:47:47.088Z,99790.19
2023-02-18T19:50:16.007Z,99803.73
2023-02-18T19:52:43.709Z,99815.42
2023-02-18T19:55:11.568Z,99815.59
2023-02-18T19:57:39.442Z,99821.62
2023-02-18T20:00:11.278Z,99825.52
2023-02-18T20:02:42.019Z,99830.33
2023-02-18T20:05:11.715Z,99823.34
2023-02-18T20:07:40.855Z,99828.88
2023-02-18T20:10:12.320Z,99839.23
2023-02-18T20:12:40.058Z,99851.98
2023-02-18T20:15:09.165Z,99856.50
2023-02-18T20:17:38.478Z,99858.02
2023-02-18T20:20:07.749Z,99860.75
2023-02-18T20:22:35.673Z,99861.48
2023-02-18T20:25:04.478Z,99863.94
2023-02-18T20:27:33.083Z,99874.07
2023-02-18T20:30:00.824Z,99879.76
2023-02-18T20:32:28.767Z,99885.94
2023-02-18T20:34:56.566Z,99896.44
2023-02-18T20:37:24.245Z,99899.55
2023-02-18T20:39:52.034Z,99903.30
2023-02-18T20:42:19.862Z,99907.27
2023-02-18T20:44:48.708Z,99906.27
2023-02-18T20:47:16.518Z,99907.74
2023-02-18T20:49:46.078Z,99913.66
2023-02-18T20:52:14.192Z,99910.92
2023-02-18T20:54:42.248Z,99914.59
2023-02-18T20:57:09.987Z,99911.76
2023-02-18T20:59:37.827Z,99922.10
2023-02-18T21:02:05.592Z,99928.70
2023-02-18T21:04:33.578Z,99930.56
2023-02-18T21:07:01.271Z,99929.28
2023-02-18T21:09:29.229Z,99936.27
2023-02-18T21:11:56.928Z,99947.42
2023-02-18T21:14:24.643Z,99950.69
2023-02-18T21:16:52.628Z,99951.73
2023-02-18T21:19:20.389Z,99956.12
2023-02-18T21:21:48.547Z,99961.27
2023-02-18T21:24:16.262Z,99959.81
2023-02-18T21:26:43.967Z,99965.48
2023-02-18T21:29:12.671Z,99965.86
2023-02-18T21:31:42.600Z,99968.39
2023-02-18T21:34:14.210Z,99973.55
2023-02-18T21:36:42.616Z,99975.23
2023-02-18T21:39:11.290Z,99979.32
2023-02-18T21:41:40.943Z,99981.03
2023-02-18T21:44:09.477Z,99982.46
2023-02-18T21:46:37.449Z,99982.45
2023-02-18T21:49:06.364Z,99989.13
2023-02-18T21:51:55.932Z,99991.20
2023-02-18T21:54:25.910Z,99991.09
2023-02-18T21:56:55.023Z,99990.17
2023-02-18T21:59:26.093Z,99991.08
2023-02-18T22:01:54.440Z,99986.59
2023-02-18T22:04:22.541Z,99988.80
2023-02-18T22:06:50.261Z,99998.23
2023-02-18T22:09:18.339Z,100006.38
2023-02-18T22:11:46.330Z,100004.50
2023-02-18T22:14:16.174Z,100005.05
2023-02-18T22:16:44.474Z,100010.35
2023-02-18T22:19:13.915Z,100011.52
2023-02-18T22:21:43.512Z,100012.15
2023-02-18T22:24:14.010Z,100022.56
2023-02-18T22:26:43.277Z,100024.36
2023-02-18T22:29:11.606Z,100019.31
2023-02-18T22:31:39.635Z,100025.11
2023-02-18T22:34:08.268Z,100027.09
2023-02-18T22:36:36.133Z,100021.14
2023-02-18T22:39:04.659Z,100019.89
2023-02-18T22:41:33.922Z,100020.10
2023-02-18T22:44:04.485Z,100024.31
2023-02-18T22:46:33.936Z,100024.77
2023-02-18T22:49:03.610Z,100021.98
2023-02-18T22:51:33.641Z,100025.89
2023-02-18T22:54:01.594Z,100027.77
2023-02-18T22:56:30.037Z,100027.47
2023-02-18T22:58:58.604Z,100028.20
2023-02-18T23:01:29.721Z,100033.21
2023-02-18T23:04:02.067Z,100035.95
2023-02-18T23:06:30.520Z,100034.13
2023-02-18T23:08:58.295Z,100034.02
2023-02-18T23:11:26.890Z,100039.24
2023-02-18T23:14:14.455Z,100047.56
2023-02-18T23:17:00.566Z,100047.42
2023-02-18T23:19:30.399Z,100048.73
2023-02-18T23:21:58.473Z,100046.58
2023-02-18T23:24:26.841Z,100050.71
2023-02-18T23:26:54.646Z,100051.59
2023-02-18T23:29:23.697Z,100046.20
2023-02-18T23:31:51.386Z,100046.38
2023-02-18T23:34:19.352Z,100043.84
2023-02-18T23:36:47.069Z,100045.89
2023-02-18T23:39:18.854Z,100049.48
2023-02-18T23:41:48.080Z,100051.08
2023-02-18T23:44:18.123Z,100055.68
2023-02-18T23:46:46.355Z,100053.79
2023-02-18T23:49:16.112Z,100054.39
2023-02-18T23:51:44.351Z,100051.23
2023-02-18T23:54:12.459Z,100046.00
2023-02-18T23:56:40.615Z,100038.72
2023-02-18T23:59:08.329Z,100037.77
